createdAt,value
2022-08-26T00:00:29.303Z,950.93
2022-08-26T00:01:29.848Z,950.92
2022-08-26T00:02:29.371Z,950.93
2022-08-26T00:03:29.291Z,950.90
2022-08-26T00:04:29.418Z,950.91
2022-08-26T00:05:29.234Z,950.95
2022-08-26T00:06:29.230Z,950.93
2022-08-26T00:07:29.242Z,950.90
2022-08-26T00:08:29.210Z,950.91
2022-08-26T00:09:29.210Z,950.90
2022-08-26T00:10:29.169Z,950.89
2022-08-26T00:11:29.152Z,950.86
2022-08-26T00:12:37.354Z,950.88
2022-08-26T00:13:29.132Z,950.88
2022-08-26T00:14:31.147Z,950.88
2022-08-26T00:15:29.133Z,950.88
2022-08-26T00:16:29.127Z,950.88
2022-08-26T00:17:29.071Z,950.86
2022-08-26T00:18:29.061Z,950.82
2022-08-26T00:19:29.039Z,950.84
2022-08-26T00:20:29.070Z,950.86
2022-08-26T00:21:29.037Z,950.85
2022-08-26T00:22:29.024Z,950.83
2022-08-26T00:23:29.016Z,950.81
2022-08-26T00:24:28.966Z,950.82
2022-08-26T00:25:29.001Z,950.81
2022-08-26T00:26:29.209Z,950.81
2022-08-26T00:27:28.953Z,950.82
2022-08-26T00:28:28.918Z,950.82
2022-08-26T00:29:28.919Z,950.83
2022-08-26T00:30:28.903Z,950.85
2022-08-26T00:31:28.930Z,950.87
2022-08-26T00:32:28.914Z,950.86
2022-08-26T00:33:28.860Z,950.87
2022-08-26T00:34:28.850Z,950.87
2022-08-26T00:35:28.823Z,950.92
2022-08-26T00:36:29.904Z,950.88
2022-08-26T00:37:28.830Z,950.88
2022-08-26T00:38:28.802Z,950.89
2022-08-26T00:39:28.783Z,950.88
2022-08-26T00:40:28.793Z,950.86
2022-08-26T00:41:28.782Z,950.86
2022-08-26T00:42:28.752Z,950.87
2022-08-26T00:43:28.718Z,950.84
2022-08-26T00:44:28.725Z,950.86
2022-08-26T00:45:28.762Z,950.89
2022-08-26T00:46:28.686Z,950.86
2022-08-26T00:47:31.145Z,950.91
2022-08-26T00:48:31.798Z,950.92
2022-08-26T00:49:28.645Z,950.87
2022-08-26T00:50:28.623Z,950.87
2022-08-26T00:51:30.011Z,950.86
2022-08-26T00:52:28.710Z,950.87
2022-08-26T00:53:28.579Z,950.93
2022-08-26T00:54:28.583Z,950.87
2022-08-26T00:55:34.638Z,950.87
2022-08-26T00:56:28.582Z,950.92
2022-08-26T00:57:28.597Z,950.89
2022-08-26T00:58:28.533Z,950.90
2022-08-26T00:59:28.540Z,950.89
2022-08-26T01:00:28.496Z,950.88
2022-08-26T01:01:28.520Z,950.85
2022-08-26T01:02:28.875Z,950.88
2022-08-26T01:03:28.456Z,950.85
2022-08-26T01:04:28.466Z,950.86
2022-08-26T01:05:28.459Z,950.86
2022-08-26T01:06:28.436Z,950.87
2022-08-26T01:07:30.113Z,950.83
2022-08-26T01:08:28.383Z,950.83
2022-08-26T01:09:28.406Z,950.83
2022-08-26T01:10:28.608Z,950.81
2022-08-26T01:11:28.345Z,950.81
2022-08-26T01:12:28.353Z,950.78
2022-08-26T01:13:28.335Z,950.79
2022-08-26T01:14:28.331Z,950.80
2022-08-26T01:15:28.307Z,950.77
2022-08-26T01:16:28.331Z,950.80
2022-08-26T01:17:28.256Z,950.76
2022-08-26T01:18:28.259Z,950.76
2022-08-26T01:19:28.325Z,950.78
2022-08-26T01:20:28.216Z,950.78
2022-08-26T01:21:28.222Z,950.84
2022-08-26T01:22:28.659Z,950.81
2022-08-26T01:23:28.212Z,950.79
2022-08-26T01:24:28.170Z,950.80
2022-08-26T01:25:28.226Z,950.79
2022-08-26T01:26:28.167Z,950.81
2022-08-26T01:27:28.125Z,950.80
2022-08-26T01:28:28.130Z,950.80
2022-08-26T01:29:28.108Z,950.80
2022-08-26T01:30:28.099Z,950.83
2022-08-26T01:31:28.159Z,950.77
2022-08-26T01:32:28.079Z,950.79
2022-08-26T01:33:28.088Z,950.76
2022-08-26T01:34:28.019Z,950.81
2022-08-26T01:35:28.049Z,950.74
2022-08-26T01:36:28.037Z,950.82
2022-08-26T01:37:28.012Z,950.77
2022-08-26T01:38:28.081Z,950.80
2022-08-26T01:39:27.965Z,950.83
2022-08-26T01:40:28.039Z,950.87
2022-08-26T01:41:29.181Z,950.84
2022-08-26T01:42:28.509Z,950.85
2022-08-26T01:43:27.909Z,950.87
2022-08-26T01:44:27.896Z,950.85
2022-08-26T01:45:27.939Z,950.87
2022-08-26T01:46:27.906Z,950.82
2022-08-26T01:49:45.090Z,950.83
2022-08-26T01:50:45.409Z,950.84
2022-08-26T01:51:45.456Z,950.87
2022-08-26T01:52:45.405Z,950.86
2022-08-26T01:53:45.980Z,950.84
2022-08-26T01:54:46.299Z,950.81
2022-08-26T01:55:45.389Z,950.82
2022-08-26T01:56:45.392Z,950.82
2022-08-26T01:57:45.587Z,950.78
2022-08-26T01:58:45.314Z,950.80
2022-08-26T01:59:45.326Z,950.83
2022-08-26T02:00:45.377Z,950.82
2022-08-26T02:01:45.435Z,950.81
2022-08-26T02:02:45.261Z,950.84
2022-08-26T02:03:45.282Z,950.83
2022-08-26T02:04:45.293Z,950.83
2022-08-26T02:05:45.199Z,950.85
2022-08-26T02:06:45.210Z,950.85
2022-08-26T02:07:45.213Z,950.86
2022-08-26T02:08:45.164Z,950.85
2022-08-26T02:09:45.161Z,950.84
2022-08-26T02:10:45.155Z,950.82
2022-08-26T02:11:45.123Z,950.85
2022-08-26T02:12:45.170Z,950.84
2022-08-26T02:13:45.099Z,950.83
2022-08-26T02:14:45.094Z,950.84
2022-08-26T02:15:45.086Z,950.80
2022-08-26T02:16:45.134Z,950.83
2022-08-26T02:17:45.073Z,950.81
2022-08-26T02:18:45.089Z,950.79
2022-08-26T02:19:45.014Z,950.82
2022-08-26T02:20:45.020Z,950.84
2022-08-26T02:21:44.977Z,950.83
2022-08-26T02:22:45.350Z,950.83
2022-08-26T02:23:44.975Z,950.84
2022-08-26T02:24:44.951Z,950.84
2022-08-26T02:25:44.945Z,950.84
2022-08-26T02:26:44.920Z,950.85
2022-08-26T02:27:44.921Z,950.82
2022-08-26T02:28:44.908Z,950.86
2022-08-26T02:29:44.882Z,950.82
2022-08-26T02:30:44.877Z,950.89
2022-08-26T02:31:44.915Z,950.88
2022-08-26T02:32:44.841Z,950.89
2022-08-26T02:33:44.844Z,950.85
2022-08-26T02:34:45.801Z,950.81
2022-08-26T02:35:44.817Z,950.85
2022-08-26T02:36:44.797Z,950.81
2022-08-26T02:37:44.939Z,950.83
2022-08-26T02:38:44.747Z,950.82
2022-08-26T02:39:44.771Z,950.82
2022-08-26T02:40:44.724Z,950.80
2022-08-26T02:41:45.321Z,950.85
2022-08-26T02:42:44.733Z,950.82
2022-08-26T02:43:44.694Z,950.79
2022-08-26T02:44:44.700Z,950.79
2022-08-26T02:45:44.670Z,950.83
2022-08-26T02:46:47.091Z,950.81
2022-08-26T02:47:44.641Z,950.83
2022-08-26T02:48:44.634Z,950.85
2022-08-26T02:49:44.645Z,950.79
2022-08-26T02:50:44.590Z,950.79
2022-08-26T02:51:44.583Z,950.79
2022-08-26T02:52:44.805Z,950.83
2022-08-26T02:53:45.354Z,950.78
2022-08-26T02:54:44.563Z,950.88
2022-08-26T02:55:44.539Z,950.88
2022-08-26T02:56:44.507Z,950.91
2022-08-26T02:57:44.484Z,950.91
2022-08-26T02:58:44.497Z,950.90
2022-08-26T02:59:44.467Z,950.86
2022-08-26T03:00:53.105Z,950.87
2022-08-26T03:01:44.570Z,950.84
2022-08-26T03:02:44.483Z,950.86
2022-08-26T03:03:44.416Z,950.91
2022-08-26T03:04:57.957Z,950.89
2022-08-26T03:05:44.443Z,950.85
2022-08-26T03:06:47.070Z,950.85
2022-08-26T03:07:44.345Z,950.88
2022-08-26T03:08:44.359Z,950.85
2022-08-26T03:09:44.357Z,950.85
2022-08-26T03:10:44.319Z,950.88
2022-08-26T03:11:44.292Z,950.79
2022-08-26T03:12:44.310Z,950.78
2022-08-26T03:13:44.282Z,950.81
2022-08-26T03:14:44.286Z,950.77
2022-08-26T03:15:44.282Z,950.76
2022-08-26T03:16:44.229Z,950.72
2022-08-26T03:17:44.208Z,950.74
2022-08-26T03:18:44.229Z,950.78
2022-08-26T03:19:44.237Z,950.73
2022-08-26T03:20:44.203Z,950.73
2022-08-26T03:21:44.202Z,950.75
2022-08-26T03:22:44.137Z,950.72
2022-08-26T03:23:44.124Z,950.70
2022-08-26T03:24:46.201Z,950.75
2022-08-26T03:25:44.097Z,950.74
2022-08-26T03:26:52.354Z,950.71
2022-08-26T03:27:44.107Z,950.73
2022-08-26T03:28:44.084Z,950.73
2022-08-26T03:29:44.051Z,950.75
2022-08-26T03:30:44.618Z,950.74
2022-08-26T03:31:44.155Z,950.73
2022-08-26T03:32:44.005Z,950.76
2022-08-26T03:33:43.993Z,950.77
2022-08-26T03:34:43.983Z,950.75
2022-08-26T03:35:43.981Z,950.77
2022-08-26T03:36:43.988Z,950.71
2022-08-26T03:37:43.937Z,950.71
2022-08-26T03:38:43.920Z,950.73
2022-08-26T03:39:43.909Z,950.69
2022-08-26T03:40:43.951Z,950.69
2022-08-26T03:41:43.923Z,950.70
2022-08-26T03:42:45.327Z,950.75
2022-08-26T03:44:55.416Z,950.69
2022-08-26T03:45:55.771Z,950.71
2022-08-26T03:46:55.801Z,950.72
2022-08-26T03:47:55.746Z,950.75
2022-08-26T03:48:55.712Z,950.75
2022-08-26T03:49:55.740Z,950.73
2022-08-26T03:50:55.706Z,950.76
2022-08-26T03:51:55.669Z,950.76
2022-08-26T03:52:55.690Z,950.70
2022-08-26T03:53:55.672Z,950.77
2022-08-26T03:54:55.669Z,950.73
2022-08-26T03:55:55.617Z,950.77
2022-08-26T03:56:55.597Z,950.78
2022-08-26T03:57:55.603Z,950.78
2022-08-26T03:58:55.609Z,950.83
2022-08-26T03:59:55.577Z,950.83
2022-08-26T04:00:55.940Z,950.81
2022-08-26T04:01:55.601Z,950.79
2022-08-26T04:02:55.594Z,950.79
2022-08-26T04:03:55.514Z,950.79
2022-08-26T04:04:55.530Z,950.82
2022-08-26T04:05:55.501Z,950.83
2022-08-26T04:06:55.470Z,950.81
2022-08-26T04:07:55.498Z,950.78
2022-08-26T04:08:55.447Z,950.82
2022-08-26T04:09:55.437Z,950.78
2022-08-26T04:10:55.410Z,950.77
2022-08-26T04:11:55.388Z,950.81
2022-08-26T04:12:55.408Z,950.76
2022-08-26T04:13:55.392Z,950.79
2022-08-26T04:14:55.342Z,950.81
2022-08-26T04:15:55.403Z,950.75
2022-08-26T04:16:55.488Z,950.74
2022-08-26T04:17:56.017Z,950.75
2022-08-26T04:18:55.296Z,950.81
2022-08-26T04:19:55.267Z,950.80
2022-08-26T04:20:55.302Z,950.81
2022-08-26T04:21:55.253Z,950.80
2022-08-26T04:22:55.265Z,950.77
2022-08-26T04:23:55.262Z,950.79
2022-08-26T04:24:55.203Z,950.73
2022-08-26T04:25:55.213Z,950.77
2022-08-26T04:26:55.179Z,950.79
2022-08-26T04:27:55.184Z,950.80
2022-08-26T04:28:55.208Z,950.81
2022-08-26T04:29:55.495Z,950.78
2022-08-26T04:30:55.208Z,950.80
2022-08-26T04:31:55.622Z,950.84
2022-08-26T04:32:55.106Z,950.81
2022-08-26T04:33:55.102Z,950.78
2022-08-26T04:34:55.116Z,950.80
2022-08-26T04:35:55.093Z,950.78
2022-08-26T04:36:55.039Z,950.82
2022-08-26T04:37:55.037Z,950.76
2022-08-26T04:38:55.031Z,950.81
2022-08-26T04:39:55.062Z,950.78
2022-08-26T04:40:54.986Z,950.77
2022-08-26T04:41:55.001Z,950.81
2022-08-26T04:42:54.987Z,950.80
2022-08-26T04:43:54.950Z,950.80
2022-08-26T04:44:54.991Z,950.83
2022-08-26T04:45:54.929Z,950.86
2022-08-26T04:46:54.988Z,950.88
2022-08-26T04:47:54.909Z,950.85
2022-08-26T04:48:54.889Z,950.84
2022-08-26T04:49:54.905Z,950.85
2022-08-26T04:50:54.879Z,950.89
2022-08-26T04:51:54.837Z,950.87
2022-08-26T04:52:54.829Z,950.88
2022-08-26T04:53:54.866Z,950.88
2022-08-26T04:54:54.826Z,950.88
2022-08-26T04:55:55.225Z,950.89
2022-08-26T04:56:54.814Z,950.89
2022-08-26T04:57:54.759Z,950.87
2022-08-26T04:58:54.755Z,950.88
2022-08-26T04:59:54.770Z,950.91
2022-08-26T05:00:54.708Z,950.89
2022-08-26T05:01:54.768Z,950.91
2022-08-26T05:02:54.705Z,950.94
2022-08-26T05:06:19.050Z,950.92
2022-08-26T05:07:19.820Z,950.92
2022-08-26T05:09:58.514Z,950.94
2022-08-26T05:10:59.512Z,950.94
2022-08-26T05:11:59.471Z,950.93
2022-08-26T05:17:28.642Z,950.95
2022-08-26T05:18:29.754Z,950.98
2022-08-26T05:19:29.643Z,950.97
2022-08-26T05:20:29.584Z,950.97
2022-08-26T05:21:29.655Z,950.94
2022-08-26T05:22:29.583Z,950.96
2022-08-26T05:23:29.550Z,951.00
2022-08-26T05:24:29.540Z,950.98
2022-08-26T05:25:29.525Z,951.00
2022-08-26T05:26:29.590Z,950.98
2022-08-26T05:27:29.513Z,950.99
2022-08-26T05:28:29.549Z,950.96
2022-08-26T05:29:29.499Z,950.98
2022-08-26T05:30:29.451Z,950.96
2022-08-26T05:31:29.517Z,950.95
2022-08-26T05:32:29.441Z,950.97
2022-08-26T05:33:29.422Z,950.96
2022-08-26T05:34:30.336Z,950.98
2022-08-26T05:35:29.447Z,950.98
2022-08-26T05:36:29.402Z,950.97
2022-08-26T05:37:29.410Z,950.97
2022-08-26T05:38:30.359Z,950.97
2022-08-26T05:39:29.328Z,950.97
2022-08-26T05:40:29.494Z,950.94
2022-08-26T05:41:34.542Z,950.97
2022-08-26T05:42:29.386Z,950.97
2022-08-26T05:43:29.277Z,950.95
2022-08-26T05:44:29.337Z,950.93
2022-08-26T05:45:29.291Z,950.94
2022-08-26T05:46:29.295Z,950.98
2022-08-26T05:47:29.238Z,950.98
2022-08-26T05:48:29.204Z,950.98
2022-08-26T05:49:29.267Z,950.95
2022-08-26T05:50:29.240Z,950.94
2022-08-26T05:51:30.407Z,950.93
2022-08-26T05:52:29.176Z,950.97
2022-08-26T05:53:29.166Z,950.93
2022-08-26T05:54:29.228Z,950.93
2022-08-26T05:55:29.115Z,950.91
2022-08-26T05:56:29.095Z,950.91
2022-08-26T05:57:29.092Z,950.94
2022-08-26T05:58:29.201Z,950.88
2022-08-26T05:59:29.056Z,950.98
2022-08-26T06:00:29.039Z,950.94
2022-08-26T06:01:29.126Z,950.94
2022-08-26T06:02:29.047Z,950.98
2022-08-26T06:03:29.025Z,950.96
2022-08-26T06:04:29.551Z,950.93
2022-08-26T06:05:29.052Z,951.00
2022-08-26T06:06:28.989Z,950.96
2022-08-26T06:07:28.948Z,950.97
2022-08-26T06:08:28.950Z,950.96
2022-08-26T06:09:28.916Z,950.97
2022-08-26T06:10:32.630Z,950.99
2022-08-26T06:11:28.918Z,950.94
2022-08-26T06:12:28.902Z,950.96
2022-08-26T06:13:31.900Z,950.95
2022-08-26T06:14:28.875Z,950.99
2022-08-26T06:15:28.882Z,950.99
2022-08-26T06:16:28.814Z,950.99
2022-08-26T06:17:28.807Z,950.97
2022-08-26T06:18:28.968Z,950.94
2022-08-26T06:19:32.984Z,950.97
2022-08-26T06:20:28.825Z,950.97
2022-08-26T06:21:28.823Z,950.94
2022-08-26T06:22:28.801Z,950.97
2022-08-26T06:23:28.726Z,950.95
2022-08-26T06:24:28.752Z,951.01
2022-08-26T06:25:28.692Z,950.98
2022-08-26T06:26:28.730Z,950.91
2022-08-26T06:27:32.603Z,950.93
2022-08-26T06:28:28.663Z,950.90
2022-08-26T06:29:28.656Z,950.90
2022-08-26T06:30:28.638Z,950.96
2022-08-26T06:31:28.772Z,950.90
2022-08-26T06:32:28.633Z,950.91
2022-08-26T06:33:28.602Z,950.90
2022-08-26T06:34:29.935Z,950.90
2022-08-26T06:35:28.571Z,950.87
2022-08-26T06:36:28.566Z,950.87
2022-08-26T06:37:28.532Z,950.90
2022-08-26T06:38:28.578Z,950.86
2022-08-26T06:39:30.884Z,950.86
2022-08-26T06:40:28.539Z,950.87
2022-08-26T06:41:28.519Z,950.88
2022-08-26T06:42:28.489Z,950.85
2022-08-26T06:43:28.519Z,950.84
2022-08-26T06:44:28.498Z,950.89
2022-08-26T06:45:28.434Z,950.84
2022-08-26T06:46:28.491Z,950.81
2022-08-26T06:47:28.432Z,950.79
2022-08-26T06:48:28.457Z,950.83
2022-08-26T06:49:28.450Z,950.81
2022-08-26T06:50:28.408Z,950.76
2022-08-26T06:52:49.480Z,950.77
2022-08-26T06:53:50.416Z,950.76
2022-08-26T06:54:50.399Z,950.76
2022-08-26T06:55:51.854Z,950.76
2022-08-26T06:56:50.363Z,950.70
2022-08-26T06:57:50.338Z,950.72
2022-08-26T06:58:50.338Z,950.78
2022-08-26T06:59:51.144Z,950.75
2022-08-26T07:00:50.309Z,950.76
2022-08-26T07:01:50.405Z,950.74
2022-08-26T07:02:50.347Z,950.72
2022-08-26T07:03:50.272Z,950.75
2022-08-26T07:04:51.183Z,950.70
2022-08-26T07:05:50.261Z,950.67
2022-08-26T07:06:50.287Z,950.65
2022-08-26T07:07:50.239Z,950.72
2022-08-26T07:08:50.200Z,950.70
2022-08-26T07:09:52.679Z,950.69
2022-08-26T07:10:50.176Z,950.69
2022-08-26T07:11:50.171Z,950.68
2022-08-26T07:12:50.281Z,950.71
2022-08-26T07:13:50.149Z,950.72
2022-08-26T07:14:50.159Z,950.70
2022-08-26T07:15:50.163Z,950.71
2022-08-26T07:16:50.348Z,950.67
2022-08-26T07:17:50.079Z,950.74
2022-08-26T07:18:50.098Z,950.70
2022-08-26T07:19:50.095Z,950.68
2022-08-26T07:20:50.043Z,950.71
2022-08-26T07:21:50.051Z,950.72
2022-08-26T07:22:50.028Z,950.70
2022-08-26T07:23:50.016Z,950.69
2022-08-26T07:24:49.979Z,950.71
2022-08-26T07:25:50.238Z,950.67
2022-08-26T07:26:50.004Z,950.70
2022-08-26T07:27:54.257Z,950.69
2022-08-26T07:28:49.975Z,950.71
2022-08-26T07:29:49.958Z,950.73
2022-08-26T07:30:49.953Z,950.72
2022-08-26T07:31:50.789Z,950.72
2022-08-26T07:32:49.934Z,950.73
2022-08-26T07:33:49.871Z,950.75
2022-08-26T07:34:49.980Z,950.72
2022-08-26T07:35:49.873Z,950.69
2022-08-26T07:36:49.959Z,950.69
2022-08-26T07:37:52.836Z,950.69
2022-08-26T07:38:49.974Z,950.66
2022-08-26T07:39:49.948Z,950.68
2022-08-26T07:40:49.767Z,950.62
2022-08-26T07:41:49.808Z,950.66
2022-08-26T07:42:50.634Z,950.67
2022-08-26T07:43:50.916Z,950.70
2022-08-26T07:44:49.747Z,950.65
2022-08-26T07:45:49.765Z,950.65
2022-08-26T07:46:52.246Z,950.62
2022-08-26T07:47:50.520Z,950.65
2022-08-26T07:48:49.788Z,950.66
2022-08-26T07:49:52.790Z,950.64
2022-08-26T07:50:50.725Z,950.63
2022-08-26T07:51:49.621Z,950.62
2022-08-26T07:52:49.631Z,950.56
2022-08-26T07:53:52.632Z,950.63
2022-08-26T07:54:49.584Z,950.59
2022-08-26T07:55:49.595Z,950.60
2022-08-26T07:56:49.559Z,950.59
2022-08-26T07:57:49.567Z,950.61
2022-08-26T07:58:51.498Z,950.61
2022-08-26T07:59:49.544Z,950.58
2022-08-26T08:00:49.518Z,950.60
2022-08-26T08:01:49.509Z,950.58
2022-08-26T08:02:49.740Z,950.56
2022-08-26T08:03:50.532Z,950.58
2022-08-26T08:04:49.513Z,950.57
2022-08-26T08:05:49.450Z,950.55
2022-08-26T08:06:49.440Z,950.55
2022-08-26T08:07:49.416Z,950.57
2022-08-26T08:08:50.701Z,950.53
2022-08-26T08:09:49.379Z,950.59
2022-08-26T08:10:49.464Z,950.55
2022-08-26T08:11:49.346Z,950.57
2022-08-26T08:12:49.355Z,950.54
2022-08-26T08:13:49.333Z,950.53
2022-08-26T08:14:49.340Z,950.50
2022-08-26T08:15:50.293Z,950.51
2022-08-26T08:16:53.317Z,950.53
2022-08-26T08:17:51.487Z,950.52
2022-08-26T08:18:49.275Z,950.53
2022-08-26T08:19:49.257Z,950.52
2022-08-26T08:21:04.701Z,950.54
2022-08-26T08:21:49.237Z,950.51
2022-08-26T08:22:49.223Z,950.51
2022-08-26T08:23:49.261Z,950.51
2022-08-26T08:24:49.944Z,950.56
2022-08-26T08:25:49.160Z,950.54
2022-08-26T08:26:49.143Z,950.55
2022-08-26T08:27:49.178Z,950.52
2022-08-26T08:28:49.157Z,950.57
2022-08-26T08:29:49.135Z,950.54
2022-08-26T08:30:49.142Z,950.51
2022-08-26T08:32:57.935Z,950.51
2022-08-26T08:33:58.903Z,950.49
2022-08-26T08:34:58.878Z,950.52
2022-08-26T08:35:58.892Z,950.48
2022-08-26T08:36:58.889Z,950.48
2022-08-26T08:37:58.859Z,950.52
2022-08-26T08:38:58.831Z,950.50
2022-08-26T08:39:58.889Z,950.47
2022-08-26T08:40:58.816Z,950.47
2022-08-26T08:41:58.792Z,950.48
2022-08-26T08:42:58.773Z,950.41
2022-08-26T08:43:58.768Z,950.39
2022-08-26T08:44:58.779Z,950.45
2022-08-26T08:45:58.767Z,950.41
2022-08-26T08:46:58.744Z,950.42
2022-08-26T08:47:58.728Z,950.42
2022-08-26T08:48:58.701Z,950.43
2022-08-26T08:49:58.675Z,950.48
2022-08-26T08:50:58.704Z,950.48
2022-08-26T08:51:58.672Z,950.46
2022-08-26T08:52:58.637Z,950.43
2022-08-26T08:53:58.697Z,950.47
2022-08-26T08:54:58.635Z,950.43
2022-08-26T08:55:58.601Z,950.40
2022-08-26T08:56:59.704Z,950.39
2022-08-26T08:58:02.105Z,950.38
2022-08-26T08:58:58.600Z,950.37
2022-08-26T08:59:58.559Z,950.41
2022-08-26T09:00:58.605Z,950.41
2022-08-26T09:01:58.576Z,950.41
2022-08-26T09:02:58.535Z,950.42
2022-08-26T09:03:58.491Z,950.43
2022-08-26T09:04:58.475Z,950.44
2022-08-26T09:05:58.475Z,950.44
2022-08-26T09:07:58.464Z,950.43
2022-08-26T09:08:58.425Z,950.45
2022-08-26T09:09:58.415Z,950.45
2022-08-26T09:10:58.437Z,950.47
2022-08-26T09:11:58.391Z,950.43
2022-08-26T09:12:58.393Z,950.43
2022-08-26T09:13:58.372Z,950.42
2022-08-26T09:14:58.333Z,950.40
2022-08-26T09:15:58.332Z,950.38
2022-08-26T09:16:58.374Z,950.39
2022-08-26T09:17:58.332Z,950.40
2022-08-26T09:18:58.284Z,950.38
2022-08-26T09:19:58.279Z,950.40
2022-08-26T09:20:58.273Z,950.37
2022-08-26T09:21:58.254Z,950.35
2022-08-26T09:22:58.254Z,950.38
2022-08-26T09:23:58.234Z,950.36
2022-08-26T09:24:58.210Z,950.37
2022-08-26T09:25:58.234Z,950.39
2022-08-26T09:26:58.176Z,950.36
2022-08-26T09:27:58.180Z,950.38
2022-08-26T09:28:58.159Z,950.39
2022-08-26T09:29:58.181Z,950.32
2022-08-26T09:30:58.423Z,950.31
2022-08-26T09:31:58.138Z,950.37
2022-08-26T09:32:58.133Z,950.32
2022-08-26T09:33:58.093Z,950.32
2022-08-26T09:34:58.073Z,950.36
2022-08-26T09:35:58.069Z,950.37
2022-08-26T09:36:58.072Z,950.32
2022-08-26T09:37:58.065Z,950.35
2022-08-26T09:38:58.021Z,950.34
2022-08-26T09:39:58.051Z,950.29
2022-08-26T09:40:59.440Z,950.32
2022-08-26T09:41:57.981Z,950.30
2022-08-26T09:42:57.986Z,950.32
2022-08-26T09:43:57.980Z,950.29
2022-08-26T09:44:57.937Z,950.30
2022-08-26T09:45:59.724Z,950.29
2022-08-26T09:46:57.963Z,950.30
2022-08-26T09:47:57.934Z,950.29
2022-08-26T09:48:57.889Z,950.30
2022-08-26T09:49:57.891Z,950.29
2022-08-26T09:50:57.853Z,950.27
2022-08-26T09:51:57.852Z,950.26
2022-08-26T09:52:57.862Z,950.25
2022-08-26T09:53:57.837Z,950.28
2022-08-26T09:54:57.819Z,950.28
2022-08-26T09:55:57.802Z,950.28
2022-08-26T09:56:57.781Z,950.30
2022-08-26T09:58:02.235Z,950.28
2022-08-26T09:58:57.873Z,950.27
2022-08-26T09:59:57.761Z,950.27
2022-08-26T10:00:57.844Z,950.23
2022-08-26T10:01:57.809Z,950.25
2022-08-26T10:02:58.168Z,950.24
2022-08-26T10:03:57.784Z,950.21
2022-08-26T10:04:57.674Z,950.19
2022-08-26T10:05:57.670Z,950.17
2022-08-26T10:06:57.751Z,950.18
2022-08-26T10:07:57.642Z,950.18
2022-08-26T10:08:57.623Z,950.15
2022-08-26T10:09:57.656Z,950.11
2022-08-26T10:10:57.602Z,950.12
2022-08-26T10:11:57.577Z,950.13
2022-08-26T10:12:57.623Z,950.12
2022-08-26T10:13:57.577Z,950.08
2022-08-26T10:14:57.570Z,950.04
2022-08-26T10:15:57.535Z,950.05
2022-08-26T10:16:57.639Z,950.05
2022-08-26T10:17:57.514Z,950.05
2022-08-26T10:19:00.145Z,950.07
2022-08-26T10:19:57.937Z,950.05
2022-08-26T10:20:57.474Z,950.00
2022-08-26T10:21:57.456Z,950.01
2022-08-26T10:22:57.436Z,950.00
2022-08-26T10:23:57.437Z,949.97
2022-08-26T10:24:57.436Z,949.95
2022-08-26T10:25:59.118Z,949.96
2022-08-26T10:26:57.429Z,949.96
2022-08-26T10:27:57.378Z,949.94
2022-08-26T10:28:57.360Z,949.93
2022-08-26T10:29:57.378Z,949.88
2022-08-26T10:30:57.342Z,949.89
2022-08-26T10:32:02.429Z,949.84
2022-08-26T10:32:57.310Z,949.84
2022-08-26T10:34:00.264Z,949.82
2022-08-26T10:34:57.286Z,949.85
2022-08-26T10:35:57.276Z,949.82
2022-08-26T10:37:15.706Z,949.79
2022-08-26T10:37:57.250Z,949.80
2022-08-26T10:38:57.233Z,949.81
2022-08-26T10:39:59.042Z,949.77
2022-08-26T10:40:57.220Z,949.82
2022-08-26T10:41:57.220Z,949.81
2022-08-26T10:42:57.178Z,949.79
2022-08-26T10:43:57.165Z,949.74
2022-08-26T10:44:58.482Z,949.78
2022-08-26T10:45:57.322Z,949.79
2022-08-26T10:46:57.129Z,949.75
2022-08-26T10:47:57.134Z,949.74
2022-08-26T10:48:57.096Z,949.70
2022-08-26T10:50:00.543Z,949.73
2022-08-26T10:50:57.101Z,949.67
2022-08-26T10:51:57.087Z,949.67
2022-08-26T10:52:57.045Z,949.68
2022-08-26T10:53:57.044Z,949.66
2022-08-26T10:54:57.023Z,949.72
2022-08-26T10:55:57.019Z,949.67
2022-08-26T10:56:56.991Z,949.65
2022-08-26T10:57:57.061Z,949.64
2022-08-26T10:58:56.995Z,949.63
2022-08-26T10:59:56.968Z,949.66
2022-08-26T11:00:57.049Z,949.62
2022-08-26T11:01:56.939Z,949.54
2022-08-26T11:02:56.941Z,949.60
2022-08-26T11:03:57.929Z,949.58
2022-08-26T11:04:56.890Z,949.53
2022-08-26T11:05:56.880Z,949.50
2022-08-26T11:06:56.854Z,949.48
2022-08-26T11:07:57.133Z,949.45
2022-08-26T11:08:56.862Z,949.45
2022-08-26T11:09:56.822Z,949.42
2022-08-26T11:10:58.865Z,949.45
2022-08-26T11:11:56.800Z,949.45
2022-08-26T11:12:56.779Z,949.42
2022-08-26T11:13:56.814Z,949.44
2022-08-26T11:14:58.961Z,949.42
2022-08-26T11:15:56.743Z,949.35
2022-08-26T11:16:56.840Z,949.42
2022-08-26T11:17:56.737Z,949.40
2022-08-26T11:18:56.713Z,949.38
2022-08-26T11:20:01.658Z,949.33
2022-08-26T11:20:56.718Z,949.39
2022-08-26T11:21:56.690Z,949.43
2022-08-26T11:22:56.649Z,949.43
2022-08-26T11:23:56.677Z,949.38
2022-08-26T11:24:56.623Z,949.35
2022-08-26T11:25:56.973Z,949.32
2022-08-26T11:26:56.807Z,949.32
2022-08-26T11:27:56.621Z,949.31
2022-08-26T11:28:56.614Z,949.25
2022-08-26T11:29:56.570Z,949.23
2022-08-26T11:30:58.063Z,949.31
2022-08-26T11:31:56.759Z,949.23
2022-08-26T11:32:56.521Z,949.25
2022-08-26T11:33:56.571Z,949.26
2022-08-26T11:34:56.523Z,949.20
2022-08-26T11:35:56.495Z,949.19
2022-08-26T11:36:56.475Z,949.18
2022-08-26T11:37:56.474Z,949.18
2022-08-26T11:38:56.476Z,949.18
2022-08-26T11:39:57.114Z,949.15
2022-08-26T11:40:56.429Z,949.14
2022-08-26T11:41:57.860Z,949.16
2022-08-26T11:42:56.412Z,949.13
2022-08-26T11:43:56.424Z,949.15
2022-08-26T11:44:58.116Z,949.16
2022-08-26T11:45:56.390Z,949.21
2022-08-26T11:46:56.352Z,949.16
2022-08-26T11:47:56.351Z,949.16
2022-08-26T11:48:56.343Z,949.19
2022-08-26T11:49:56.310Z,949.19
2022-08-26T11:50:56.297Z,949.14
2022-08-26T11:51:56.295Z,949.15
2022-08-26T11:52:56.277Z,949.13
2022-08-26T11:53:56.298Z,949.14
2022-08-26T11:54:56.264Z,949.13
2022-08-26T11:55:56.234Z,949.15
2022-08-26T11:56:56.271Z,949.12
2022-08-26T11:57:56.224Z,949.13
2022-08-26T11:58:56.242Z,949.10
2022-08-26T11:59:56.213Z,949.12
2022-08-26T12:00:56.180Z,949.13
2022-08-26T12:01:56.172Z,949.09
2022-08-26T12:02:56.155Z,949.07
2022-08-26T12:03:56.254Z,948.97
2022-08-26T12:04:56.125Z,948.98
2022-08-26T12:05:56.111Z,948.94
2022-08-26T12:06:56.107Z,948.93
2022-08-26T12:07:56.106Z,948.94
2022-08-26T12:08:56.125Z,948.89
2022-08-26T12:09:56.371Z,948.88
2022-08-26T12:10:56.065Z,948.87
2022-08-26T12:11:57.976Z,948.89
2022-08-26T12:12:56.034Z,948.91
2022-08-26T12:13:56.047Z,948.91
2022-08-26T12:14:56.008Z,948.90
2022-08-26T12:15:56.146Z,948.95
2022-08-26T12:16:56.055Z,948.94
2022-08-26T12:17:55.967Z,948.92
2022-08-26T12:18:55.981Z,948.89
2022-08-26T12:19:55.940Z,948.90
2022-08-26T12:20:55.935Z,948.89
2022-08-26T12:21:55.927Z,948.90
2022-08-26T12:22:55.929Z,948.87
2022-08-26T12:23:56.018Z,948.92
2022-08-26T12:24:55.885Z,948.94
2022-08-26T12:25:55.877Z,948.92
2022-08-26T12:26:55.866Z,948.89
2022-08-26T12:27:55.880Z,948.87
2022-08-26T12:28:55.898Z,948.91
2022-08-26T12:29:55.846Z,948.88
2022-08-26T12:30:55.855Z,948.88
2022-08-26T12:31:55.849Z,948.85
2022-08-26T12:32:57.697Z,948.84
2022-08-26T12:33:55.773Z,948.85
2022-08-26T12:34:55.787Z,948.89
2022-08-26T12:35:56.696Z,948.87
2022-08-26T12:36:55.842Z,948.85
2022-08-26T12:37:55.751Z,948.89
2022-08-26T12:38:58.269Z,948.87
2022-08-26T12:39:55.726Z,948.87
2022-08-26T12:40:55.690Z,948.83
2022-08-26T12:41:55.695Z,948.74
2022-08-26T12:42:55.647Z,948.77
2022-08-26T12:43:55.646Z,948.77